sensor_id;sensor_type;location;lat;lon;timestamp;P1;durP1;ratioP1;P2;durP2;ratioP2
20251;SDS011;10284;58.364;15.550;2022-11-03T00:01:56;4.60;;;1.40;;
20251;SDS011;10284;58.364;15.550;2022-11-03T00:04:21;4.88;;;1.73;;
20251;SDS011;10284;58.364;15.550;2022-11-03T00:06:51;8.55;;;1.65;;
20251;SDS011;10284;58.364;15.550;2022-11-03T00:09:18;9.52;;;1.50;;
20251;SDS011;10284;58.364;15.550;2022-11-03T00:11:45;10.82;;;1.80;;
20251;SDS011;10284;58.364;15.550;2022-11-03T00:14:11;4.85;;;1.70;;
20251;SDS011;10284;58.364;15.550;2022-11-03T00:16:38;7.15;;;1.73;;
20251;SDS011;10284;58.364;15.550;2022-11-03T00:19:04;8.77;;;1.60;;
20251;SDS011;10284;58.364;15.550;2022-11-03T00:21:30;11.88;;;2.00;;
20251;SDS011;10284;58.364;15.550;2022-11-03T00:23:56;6.68;;;1.48;;
20251;SDS011;10284;58.364;15.550;2022-11-03T00:26:25;11.63;;;1.65;;
20251;SDS011;10284;58.364;15.550;2022-11-03T00:28:52;12.50;;;1.70;;
20251;SDS011;10284;58.364;15.550;2022-11-03T00:31:20;9.48;;;1.95;;
20251;SDS011;10284;58.364;15.550;2022-11-03T00:33:47;9.38;;;2.42;;
20251;SDS011;10284;58.364;15.550;2022-11-03T00:36:13;7.65;;;1.80;;
20251;SDS011;10284;58.364;15.550;2022-11-03T00:38:41;12.65;;;1.90;;
20251;SDS011;10284;58.364;15.550;2022-11-03T00:41:06;11.15;;;1.90;;
20251;SDS011;10284;58.364;15.550;2022-11-03T00:43:32;8.90;;;1.50;;
20251;SDS011;10284;58.364;15.550;2022-11-03T00:45:59;14.95;;;1.95;;
20251;SDS011;10284;58.364;15.550;2022-11-03T00:48:25;8.70;;;1.80;;
20251;SDS011;10284;58.364;15.550;2022-11-03T00:50:53;11.20;;;1.55;;
20251;SDS011;10284;58.364;15.550;2022-11-03T00:53:19;10.40;;;1.70;;
20251;SDS011;10284;58.364;15.550;2022-11-03T00:55:48;10.50;;;1.58;;
20251;SDS011;10284;58.364;15.550;2022-11-03T00:58:14;19.50;;;2.90;;
20251;SDS011;10284;58.364;15.550;2022-11-03T01:00:39;8.82;;;1.98;;
20251;SDS011;10284;58.364;15.550;2022-11-03T01:03:05;9.25;;;1.85;;
20251;SDS011;10284;58.364;15.550;2022-11-03T01:05:30;9.60;;;2.13;;
20251;SDS011;10284;58.364;15.550;2022-11-03T01:08:14;9.13;;;1.58;;
20251;SDS011;10284;58.364;15.550;2022-11-03T01:10:40;12.77;;;2.15;;
20251;SDS011;10284;58.364;15.550;2022-11-03T01:13:25;11.27;;;1.98;;
20251;SDS011;10284;58.364;15.550;2022-11-03T01:15:51;13.32;;;1.80;;
20251;SDS011;10284;58.364;15.550;2022-11-03T01:18:16;8.27;;;1.65;;
20251;SDS011;10284;58.364;15.550;2022-11-03T01:20:42;10.30;;;1.85;;
20251;SDS011;10284;58.364;15.550;2022-11-03T01:23:07;9.30;;;1.75;;
20251;SDS011;10284;58.364;15.550;2022-11-03T01:25:34;6.43;;;1.40;;
20251;SDS011;10284;58.364;15.550;2022-11-03T01:28:01;10.25;;;1.80;;
20251;SDS011;10284;58.364;15.550;2022-11-03T01:30:26;13.73;;;2.38;;
20251;SDS011;10284;58.364;15.550;2022-11-03T01:32:51;13.85;;;2.42;;
20251;SDS011;10284;58.364;15.550;2022-11-03T01:35:17;14.90;;;2.38;;
20251;SDS011;10284;58.364;15.550;2022-11-03T01:37:42;10.77;;;2.10;;
20251;SDS011;10284;58.364;15.550;2022-11-03T01:40:08;8.60;;;1.98;;
20251;SDS011;10284;58.364;15.550;2022-11-03T01:42:34;9.48;;;1.70;;
20251;SDS011;10284;58.364;15.550;2022-11-03T01:44:59;11.32;;;1.65;;
20251;SDS011;10284;58.364;15.550;2022-11-03T01:47:31;13.40;;;2.38;;
20251;SDS011;10284;58.364;15.550;2022-11-03T01:49:58;11.48;;;1.70;;
20251;SDS011;10284;58.364;15.550;2022-11-03T01:52:39;13.57;;;2.03;;
20251;SDS011;10284;58.364;15.550;2022-11-03T01:55:10;7.47;;;1.67;;
20251;SDS011;10284;58.364;15.550;2022-11-03T01:57:41;12.65;;;1.95;;
20251;SDS011;10284;58.364;15.550;2022-11-03T02:00:11;11.77;;;2.20;;
20251;SDS011;10284;58.364;15.550;2022-11-03T02:02:36;7.00;;;2.08;;
20251;SDS011;10284;58.364;15.550;2022-11-03T02:05:02;11.02;;;2.00;;
20251;SDS011;10284;58.364;15.550;2022-11-03T02:09:56;11.65;;;2.25;;
20251;SDS011;10284;58.364;15.550;2022-11-03T02:12:22;16.25;;;2.42;;
20251;SDS011;10284;58.364;15.550;2022-11-03T02:14:48;11.77;;;1.98;;
20251;SDS011;10284;58.364;15.550;2022-11-03T02:17:19;10.77;;;2.05;;
20251;SDS011;10284;58.364;15.550;2022-11-03T02:19:47;7.03;;;1.88;;
20251;SDS011;10284;58.364;15.550;2022-11-03T02:22:28;7.57;;;1.80;;
20251;SDS011;10284;58.364;15.550;2022-11-03T02:27:55;10.55;;;1.70;;
20251;SDS011;10284;58.364;15.550;2022-11-03T02:30:20;9.18;;;1.95;;
20251;SDS011;10284;58.364;15.550;2022-11-03T02:32:56;6.53;;;1.90;;
20251;SDS011;10284;58.364;15.550;2022-11-03T02:38:02;13.15;;;1.90;;
20251;SDS011;10284;58.364;15.550;2022-11-03T02:40:31;14.00;;;1.88;;
20251;SDS011;10284;58.364;15.550;2022-11-03T02:42:58;7.28;;;1.80;;
20251;SDS011;10284;58.364;15.550;2022-11-03T02:45:25;10.57;;;1.80;;
20251;SDS011;10284;58.364;15.550;2022-11-03T02:47:52;11.20;;;1.50;;
20251;SDS011;10284;58.364;15.550;2022-11-03T02:50:19;11.38;;;1.73;;
20251;SDS011;10284;58.364;15.550;2022-11-03T02:52:47;9.43;;;1.73;;
20251;SDS011;10284;58.364;15.550;2022-11-03T02:55:30;7.10;;;1.55;;
20251;SDS011;10284;58.364;15.550;2022-11-03T02:58:16;9.02;;;1.65;;
20251;SDS011;10284;58.364;15.550;2022-11-03T03:00:47;8.60;;;1.33;;
20251;SDS011;10284;58.364;15.550;2022-11-03T03:05:44;5.18;;;1.35;;
20251;SDS011;10284;58.364;15.550;2022-11-03T03:08:10;7.47;;;1.83;;
20251;SDS011;10284;58.364;15.550;2022-11-03T03:10:40;7.00;;;2.05;;
20251;SDS011;10284;58.364;15.550;2022-11-03T03:13:07;6.38;;;1.65;;
20251;SDS011;10284;58.364;15.550;2022-11-03T03:15:38;4.25;;;1.23;;
20251;SDS011;10284;58.364;15.550;2022-11-03T03:18:26;5.43;;;1.10;;
20251;SDS011;10284;58.364;15.550;2022-11-03T03:21:56;3.78;;;1.30;;
20251;SDS011;10284;58.364;15.550;2022-11-03T03:23:59;9.65;;;1.67;;
20251;SDS011;10284;58.364;15.550;2022-11-03T03:26:40;8.50;;;1.75;;
20251;SDS011;10284;58.364;15.550;2022-11-03T03:29:13;9.60;;;1.95;;
20251;SDS011;10284;58.364;15.550;2022-11-03T03:31:41;7.95;;;2.13;;
20251;SDS011;10284;58.364;15.550;2022-11-03T03:34:12;8.35;;;1.83;;
20251;SDS011;10284;58.364;15.550;2022-11-03T03:36:39;8.93;;;2.13;;
20251;SDS011;10284;58.364;15.550;2022-11-03T03:39:05;11.00;;;2.08;;
20251;SDS011;10284;58.364;15.550;2022-11-03T03:41:33;6.05;;;1.73;;
20251;SDS011;10284;58.364;15.550;2022-11-03T03:44:00;11.43;;;1.92;;
20251;SDS011;10284;58.364;15.550;2022-11-03T03:46:30;5.53;;;2.03;;
20251;SDS011;10284;58.364;15.550;2022-11-03T03:49:19;12.35;;;2.30;;
20251;SDS011;10284;58.364;15.550;2022-11-03T03:51:44;7.05;;;1.77;;
20251;SDS011;10284;58.364;15.550;2022-11-03T03:54:10;7.20;;;1.67;;
20251;SDS011;10284;58.364;15.550;2022-11-03T03:56:55;8.60;;;2.08;;
20251;SDS011;10284;58.364;15.550;2022-11-03T03:59:25;7.57;;;2.00;;
20251;SDS011;10284;58.364;15.550;2022-11-03T04:01:50;6.25;;;2.17;;
20251;SDS011;10284;58.364;15.550;2022-11-03T04:04:16;6.78;;;2.20;;
20251;SDS011;10284;58.364;15.550;2022-11-03T04:06:41;10.93;;;2.20;;
20251;SDS011;10284;58.364;15.550;2022-11-03T04:09:07;9.13;;;2.00;;
20251;SDS011;10284;58.364;15.550;2022-11-03T04:11:33;9.57;;;2.03;;
20251;SDS011;10284;58.364;15.550;2022-11-03T04:14:17;13.65;;;2.42;;
20251;SDS011;10284;58.364;15.550;2022-11-03T04:17:01;10.70;;;2.15;;
20251;SDS011;10284;58.364;15.550;2022-11-03T04:19:45;5.32;;;1.83;;
20251;SDS011;10284;58.364;15.550;2022-11-03T04:22:30;10.57;;;2.00;;
20251;SDS011;10284;58.364;15.550;2022-11-03T04:24:56;7.22;;;2.03;;
20251;SDS011;10284;58.364;15.550;2022-11-03T04:29:58;14.20;;;2.50;;
20251;SDS011;10284;58.364;15.550;2022-11-03T04:32:27;10.98;;;2.15;;
20251;SDS011;10284;58.364;15.550;2022-11-03T04:34:53;15.82;;;2.85;;
20251;SDS011;10284;58.364;15.550;2022-11-03T04:37:18;8.70;;;2.05;;
20251;SDS011;10284;58.364;15.550;2022-11-03T04:39:44;11.90;;;2.65;;
20251;SDS011;10284;58.364;15.550;2022-11-03T04:42:19;7.15;;;1.85;;
20251;SDS011;10284;58.364;15.550;2022-11-03T04:44:45;7.75;;;1.95;;
20251;SDS011;10284;58.364;15.550;2022-11-03T04:47:12;11.32;;;2.20;;
20251;SDS011;10284;58.364;15.550;2022-11-03T04:49:38;8.93;;;2.25;;
20251;SDS011;10284;58.364;15.550;2022-11-03T04:52:13;12.57;;;2.33;;
20251;SDS011;10284;58.364;15.550;2022-11-03T04:54:40;8.93;;;2.00;;
20251;SDS011;10284;58.364;15.550;2022-11-03T04:57:10;7.47;;;2.15;;
20251;SDS011;10284;58.364;15.550;2022-11-03T04:59:38;13.20;;;2.47;;
20251;SDS011;10284;58.364;15.550;2022-11-03T05:02:07;7.93;;;1.90;;
20251;SDS011;10284;58.364;15.550;2022-11-03T05:04:34;9.13;;;1.95;;
20251;SDS011;10284;58.364;15.550;2022-11-03T05:06:59;6.30;;;1.98;;
20251;SDS011;10284;58.364;15.550;2022-11-03T05:09:28;10.82;;;2.35;;
20251;SDS011;10284;58.364;15.550;2022-11-03T05:11:54;10.50;;;2.17;;
20251;SDS011;10284;58.364;15.550;2022-11-03T05:14:21;10.57;;;2.35;;
20251;SDS011;10284;58.364;15.550;2022-11-03T05:16:49;7.72;;;1.80;;
20251;SDS011;10284;58.364;15.550;2022-11-03T05:19:18;9.07;;;1.88;;
20251;SDS011;10284;58.364;15.550;2022-11-03T05:21:47;14.43;;;2.40;;
20251;SDS011;10284;58.364;15.550;2022-11-03T05:24:14;9.13;;;2.33;;
20251;SDS011;10284;58.364;15.550;2022-11-03T05:26:39;16.58;;;2.97;;
20251;SDS011;10284;58.364;15.550;2022-11-03T05:29:10;8.48;;;2.08;;
20251;SDS011;10284;58.364;15.550;2022-11-03T05:31:40;11.63;;;2.45;;
20251;SDS011;10284;58.364;15.550;2022-11-03T05:37:12;13.85;;;3.05;;
20251;SDS011;10284;58.364;15.550;2022-11-03T05:39:40;11.80;;;2.60;;
20251;SDS011;10284;58.364;15.550;2022-11-03T05:44:52;15.90;;;2.35;;
20251;SDS011;10284;58.364;15.550;2022-11-03T05:49:43;14.82;;;2.50;;
20251;SDS011;10284;58.364;15.550;2022-11-03T05:52:12;12.05;;;2.92;;
20251;SDS011;10284;58.364;15.550;2022-11-03T05:54:41;16.10;;;2.90;;
20251;SDS011;10284;58.364;15.550;2022-11-03T05:57:08;6.72;;;2.67;;
20251;SDS011;10284;58.364;15.550;2022-11-03T05:59:35;14.63;;;2.30;;
20251;SDS011;10284;58.364;15.550;2022-11-03T06:02:00;7.95;;;2.00;;
20251;SDS011;10284;58.364;15.550;2022-11-03T06:06:55;13.77;;;2.25;;
20251;SDS011;10284;58.364;15.550;2022-11-03T06:09:24;8.57;;;2.17;;
20251;SDS011;10284;58.364;15.550;2022-11-03T06:11:51;11.93;;;2.20;;
20251;SDS011;10284;58.364;15.550;2022-11-03T06:14:19;15.50;;;2.45;;
20251;SDS011;10284;58.364;15.550;2022-11-03T06:16:46;17.27;;;3.25;;
20251;SDS011;10284;58.364;15.550;2022-11-03T06:19:30;13.93;;;2.45;;
20251;SDS011;10284;58.364;15.550;2022-11-03T06:22:01;14.30;;;2.53;;
20251;SDS011;10284;58.364;15.550;2022-11-03T06:24:32;12.90;;;2.95;;
20251;SDS011;10284;58.364;15.550;2022-11-03T06:26:58;13.82;;;2.47;;
20251;SDS011;10284;58.364;15.550;2022-11-03T06:29:23;11.88;;;2.65;;
20251;SDS011;10284;58.364;15.550;2022-11-03T06:31:49;13.32;;;2.38;;
20251;SDS011;10284;58.364;15.550;2022-11-03T06:37:14;13.02;;;2.67;;
20251;SDS011;10284;58.364;15.550;2022-11-03T06:39:53;13.02;;;2.35;;
20251;SDS011;10284;58.364;15.550;2022-11-03T06:42:24;12.57;;;2.65;;
20251;SDS011;10284;58.364;15.550;2022-11-03T06:44:50;17.33;;;2.90;;
20251;SDS011;10284;58.364;15.550;2022-11-03T06:47:25;14.07;;;2.85;;
20251;SDS011;10284;58.364;15.550;2022-11-03T06:49:56;15.55;;;2.90;;
20251;SDS011;10284;58.364;15.550;2022-11-03T06:52:23;14.27;;;3.40;;
20251;SDS011;10284;58.364;15.550;2022-11-03T06:55:00;13.05;;;3.08;;
20251;SDS011;10284;58.364;15.550;2022-11-03T06:57:34;15.30;;;3.50;;
20251;SDS011;10284;58.364;15.550;2022-11-03T07:00:01;13.27;;;2.80;;
20251;SDS011;10284;58.364;15.550;2022-11-03T07:05:20;14.35;;;2.60;;
20251;SDS011;10284;58.364;15.550;2022-11-03T07:07:55;17.25;;;2.42;;
20251;SDS011;10284;58.364;15.550;2022-11-03T07:10:26;8.35;;;2.33;;
20251;SDS011;10284;58.364;15.550;2022-11-03T07:12:57;14.00;;;2.53;;
20251;SDS011;10284;58.364;15.550;2022-11-03T07:15:26;11.23;;;2.33;;
20251;SDS011;10284;58.364;15.550;2022-11-03T07:17:54;14.18;;;2.63;;
20251;SDS011;10284;58.364;15.550;2022-11-03T07:20:19;15.27;;;2.33;;
20251;SDS011;10284;58.364;15.550;2022-11-03T07:22:45;9.95;;;1.95;;
20251;SDS011;10284;58.364;15.550;2022-11-03T07:25:16;13.13;;;2.10;;
20251;SDS011;10284;58.364;15.550;2022-11-03T07:27:43;10.90;;;2.00;;
20251;SDS011;10284;58.364;15.550;2022-11-03T07:32:52;14.13;;;2.45;;
20251;SDS011;10284;58.364;15.550;2022-11-03T07:35:31;14.77;;;2.58;;
20251;SDS011;10284;58.364;15.550;2022-11-03T07:37:59;12.68;;;2.50;;
20251;SDS011;10284;58.364;15.550;2022-11-03T07:40:26;16.95;;;2.88;;
20251;SDS011;10284;58.364;15.550;2022-11-03T07:42:56;13.93;;;2.67;;
20251;SDS011;10284;58.364;15.550;2022-11-03T07:45:34;12.85;;;2.50;;
20251;SDS011;10284;58.364;15.550;2022-11-03T07:50:45;14.90;;;2.13;;
20251;SDS011;10284;58.364;15.550;2022-11-03T07:53:21;13.43;;;2.25;;
20251;SDS011;10284;58.364;15.550;2022-11-03T07:55:49;14.70;;;2.38;;
20251;SDS011;10284;58.364;15.550;2022-11-03T07:58:19;17.00;;;2.50;;
20251;SDS011;10284;58.364;15.550;2022-11-03T08:00:47;14.48;;;2.95;;
20251;SDS011;10284;58.364;15.550;2022-11-03T08:03:18;14.05;;;2.25;;
20251;SDS011;10284;58.364;15.550;2022-11-03T08:05:47;8.70;;;2.22;;
20251;SDS011;10284;58.364;15.550;2022-11-03T08:08:12;12.15;;;2.45;;
20251;SDS011;10284;58.364;15.550;2022-11-03T08:10:38;14.23;;;2.50;;
20251;SDS011;10284;58.364;15.550;2022-11-03T08:13:03;16.52;;;3.63;;
20251;SDS011;10284;58.364;15.550;2022-11-03T08:15:29;15.30;;;2.92;;
20251;SDS011;10284;58.364;15.550;2022-11-03T08:17:54;11.02;;;2.28;;
20251;SDS011;10284;58.364;15.550;2022-11-03T08:20:19;14.48;;;2.65;;
20251;SDS011;10284;58.364;15.550;2022-11-03T08:22:45;18.83;;;2.60;;
20251;SDS011;10284;58.364;15.550;2022-11-03T08:25:10;12.45;;;2.42;;
20251;SDS011;10284;58.364;15.550;2022-11-03T08:27:36;9.00;;;2.40;;
20251;SDS011;10284;58.364;15.550;2022-11-03T08:30:01;9.68;;;2.47;;
20251;SDS011;10284;58.364;15.550;2022-11-03T08:32:26;20.15;;;3.45;;
20251;SDS011;10284;58.364;15.550;2022-11-03T08:34:52;8.52;;;2.20;;
20251;SDS011;10284;58.364;15.550;2022-11-03T08:37:17;8.50;;;2.15;;
20251;SDS011;10284;58.364;15.550;2022-11-03T08:39:42;8.98;;;2.63;;
20251;SDS011;10284;58.364;15.550;2022-11-03T08:42:08;9.68;;;2.30;;
20251;SDS011;10284;58.364;15.550;2022-11-03T08:44:33;10.85;;;2.90;;
20251;SDS011;10284;58.364;15.550;2022-11-03T08:46:59;14.43;;;2.47;;
20251;SDS011;10284;58.364;15.550;2022-11-03T08:49:24;10.10;;;2.40;;
20251;SDS011;10284;58.364;15.550;2022-11-03T08:51:49;11.82;;;2.47;;
20251;SDS011;10284;58.364;15.550;2022-11-03T08:54:15;10.13;;;2.05;;
20251;SDS011;10284;58.364;15.550;2022-11-03T08:56:41;11.38;;;2.65;;
20251;SDS011;10284;58.364;15.550;2022-11-03T08:59:07;17.35;;;2.58;;
20251;SDS011;10284;58.364;15.550;2022-11-03T09:01:33;14.15;;;2.90;;
20251;SDS011;10284;58.364;15.550;2022-11-03T09:03:58;11.07;;;2.40;;
20251;SDS011;10284;58.364;15.550;2022-11-03T09:06:24;13.05;;;2.50;;
20251;SDS011;10284;58.364;15.550;2022-11-03T09:08:49;10.05;;;2.08;;
20251;SDS011;10284;58.364;15.550;2022-11-03T09:11:14;11.15;;;2.67;;
20251;SDS011;10284;58.364;15.550;2022-11-03T09:13:40;10.82;;;2.60;;
20251;SDS011;10284;58.364;15.550;2022-11-03T09:16:05;11.55;;;2.78;;
20251;SDS011;10284;58.364;15.550;2022-11-03T09:18:31;12.73;;;2.55;;
20251;SDS011;10284;58.364;15.550;2022-11-03T09:20:58;12.75;;;2.70;;
20251;SDS011;10284;58.364;15.550;2022-11-03T09:23:23;13.93;;;2.47;;
20251;SDS011;10284;58.364;15.550;2022-11-03T09:25:48;11.10;;;2.70;;
20251;SDS011;10284;58.364;15.550;2022-11-03T09:28:14;11.55;;;2.60;;
20251;SDS011;10284;58.364;15.550;2022-11-03T09:30:39;9.18;;;2.80;;
20251;SDS011;10284;58.364;15.550;2022-11-03T09:33:04;17.70;;;3.03;;
20251;SDS011;10284;58.364;15.550;2022-11-03T09:35:30;10.00;;;3.00;;
20251;SDS011;10284;58.364;15.550;2022-11-03T09:37:56;16.90;;;3.45;;
20251;SDS011;10284;58.364;15.550;2022-11-03T09:40:21;16.42;;;2.78;;
20251;SDS011;10284;58.364;15.550;2022-11-03T09:42:47;14.75;;;3.38;;
20251;SDS011;10284;58.364;15.550;2022-11-03T09:45:13;12.43;;;2.85;;
20251;SDS011;10284;58.364;15.550;2022-11-03T09:47:39;14.95;;;3.22;;
20251;SDS011;10284;58.364;15.550;2022-11-03T09:50:05;11.73;;;2.95;;
20251;SDS011;10284;58.364;15.550;2022-11-03T09:52:35;11.40;;;2.97;;
20251;SDS011;10284;58.364;15.550;2022-11-03T09:55:01;14.07;;;2.78;;
20251;SDS011;10284;58.364;15.550;2022-11-03T09:57:27;17.27;;;3.15;;
20251;SDS011;10284;58.364;15.550;2022-11-03T09:59:52;12.93;;;3.10;;
20251;SDS011;10284;58.364;15.550;2022-11-03T10:02:20;14.10;;;3.58;;
20251;SDS011;10284;58.364;15.550;2022-11-03T10:04:51;15.40;;;2.83;;
20251;SDS011;10284;58.364;15.550;2022-11-03T10:07:17;12.88;;;2.80;;
20251;SDS011;10284;58.364;15.550;2022-11-03T10:09:44;10.57;;;2.97;;
20251;SDS011;10284;58.364;15.550;2022-11-03T10:12:11;16.77;;;2.85;;
20251;SDS011;10284;58.364;15.550;2022-11-03T10:14:37;15.80;;;3.58;;
20251;SDS011;10284;58.364;15.550;2022-11-03T10:17:02;12.73;;;3.50;;
20251;SDS011;10284;58.364;15.550;2022-11-03T10:19:28;8.75;;;2.80;;
20251;SDS011;10284;58.364;15.550;2022-11-03T10:21:53;12.23;;;3.33;;
20251;SDS011;10284;58.364;15.550;2022-11-03T10:24:18;15.95;;;3.10;;
20251;SDS011;10284;58.364;15.550;2022-11-03T10:26:50;16.08;;;3.30;;
20251;SDS011;10284;58.364;15.550;2022-11-03T10:29:20;12.50;;;3.10;;
20251;SDS011;10284;58.364;15.550;2022-11-03T10:31:48;13.43;;;3.03;;
20251;SDS011;10284;58.364;15.550;2022-11-03T10:34:31;17.08;;;2.92;;
20251;SDS011;10284;58.364;15.550;2022-11-03T10:37:18;13.82;;;3.17;;
20251;SDS011;10284;58.364;15.550;2022-11-03T10:39:53;17.17;;;3.33;;
20251;SDS011;10284;58.364;15.550;2022-11-03T10:42:26;16.33;;;3.03;;
20251;SDS011;10284;58.364;15.550;2022-11-03T10:45:07;11.95;;;3.03;;
20251;SDS011;10284;58.364;15.550;2022-11-03T10:47:40;13.85;;;3.00;;
20251;SDS011;10284;58.364;15.550;2022-11-03T10:52:44;12.45;;;3.00;;
20251;SDS011;10284;58.364;15.550;2022-11-03T10:55:09;16.40;;;3.90;;
20251;SDS011;10284;58.364;15.550;2022-11-03T10:57:35;16.55;;;3.53;;
20251;SDS011;10284;58.364;15.550;2022-11-03T11:00:00;11.73;;;2.72;;
20251;SDS011;10284;58.364;15.550;2022-11-03T11:02:28;11.23;;;3.50;;
20251;SDS011;10284;58.364;15.550;2022-11-03T11:04:59;13.45;;;2.90;;
20251;SDS011;10284;58.364;15.550;2022-11-03T11:07:28;17.38;;;4.13;;
20251;SDS011;10284;58.364;15.550;2022-11-03T11:10:03;13.82;;;3.22;;
20251;SDS011;10284;58.364;15.550;2022-11-03T11:12:34;9.52;;;3.10;;
20251;SDS011;10284;58.364;15.550;2022-11-03T11:15:01;9.75;;;2.95;;
20251;SDS011;10284;58.364;15.550;2022-11-03T11:17:40;12.45;;;3.60;;
20251;SDS011;10284;58.364;15.550;2022-11-03T11:22:45;8.48;;;2.70;;
20251;SDS011;10284;58.364;15.550;2022-11-03T11:25:11;10.68;;;3.20;;
20251;SDS011;10284;58.364;15.550;2022-11-03T11:30:06;13.30;;;3.75;;
20251;SDS011;10284;58.364;15.550;2022-11-03T11:32:58;11.95;;;3.30;;
20251;SDS011;10284;58.364;15.550;2022-11-03T11:37:51;13.88;;;4.00;;
20251;SDS011;10284;58.364;15.550;2022-11-03T11:48:40;12.02;;;3.25;;
20251;SDS011;10284;58.364;15.550;2022-11-03T11:51:06;9.05;;;3.33;;
20251;SDS011;10284;58.364;15.550;2022-11-03T11:53:36;9.50;;;3.42;;
20251;SDS011;10284;58.364;15.550;2022-11-03T11:56:03;9.52;;;3.63;;
20251;SDS011;10284;58.364;15.550;2022-11-03T11:58:35;10.52;;;3.70;;
20251;SDS011;10284;58.364;15.550;2022-11-03T12:01:28;17.50;;;3.63;;
20251;SDS011;10284;58.364;15.550;2022-11-03T12:03:56;11.10;;;3.60;;
20251;SDS011;10284;58.364;15.550;2022-11-03T12:06:35;11.77;;;3.83;;
20251;SDS011;10284;58.364;15.550;2022-11-03T12:09:24;15.10;;;3.65;;
20251;SDS011;10284;58.364;15.550;2022-11-03T12:11:56;12.60;;;3.67;;
20251;SDS011;10284;58.364;15.550;2022-11-03T12:19:47;12.30;;;4.05;;
20251;SDS011;10284;58.364;15.550;2022-11-03T12:27:59;7.60;;;3.90;;
20251;SDS011;10284;58.364;15.550;2022-11-03T12:30:02;9.18;;;3.47;;
20251;SDS011;10284;58.364;15.550;2022-11-03T12:32:29;15.90;;;4.00;;
20251;SDS011;10284;58.364;15.550;2022-11-03T12:34:55;12.55;;;3.67;;
20251;SDS011;10284;58.364;15.550;2022-11-03T12:37:20;11.20;;;3.40;;
20251;SDS011;10284;58.364;15.550;2022-11-03T12:39:46;9.13;;;4.13;;
20251;SDS011;10284;58.364;15.550;2022-11-03T12:42:11;14.38;;;4.05;;
20251;SDS011;10284;58.364;15.550;2022-11-03T12:44:37;13.27;;;4.10;;
20251;SDS011;10284;58.364;15.550;2022-11-03T12:47:02;11.60;;;3.95;;
20251;SDS011;10284;58.364;15.550;2022-11-03T12:49:28;7.63;;;4.00;;
20251;SDS011;10284;58.364;15.550;2022-11-03T12:51:54;12.88;;;4.00;;
20251;SDS011;10284;58.364;15.550;2022-11-03T12:54:20;13.63;;;4.53;;
20251;SDS011;10284;58.364;15.550;2022-11-03T12:56:48;10.20;;;3.78;;
20251;SDS011;10284;58.364;15.550;2022-11-03T12:59:14;13.57;;;3.88;;
20251;SDS011;10284;58.364;15.550;2022-11-03T13:01:39;15.13;;;3.95;;
20251;SDS011;10284;58.364;15.550;2022-11-03T13:04:05;11.95;;;4.07;;
20251;SDS011;10284;58.364;15.550;2022-11-03T13:06:31;13.88;;;4.40;;
20251;SDS011;10284;58.364;15.550;2022-11-03T13:08:56;13.50;;;4.10;;
20251;SDS011;10284;58.364;15.550;2022-11-03T13:11:22;11.48;;;4.03;;
20251;SDS011;10284;58.364;15.550;2022-11-03T13:14:06;10.68;;;3.88;;
20251;SDS011;10284;58.364;15.550;2022-11-03T13:16:31;13.40;;;3.85;;
20251;SDS011;10284;58.364;15.550;2022-11-03T13:18:57;15.20;;;3.90;;
20251;SDS011;10284;58.364;15.550;2022-11-03T13:21:22;12.90;;;4.05;;
20251;SDS011;10284;58.364;15.550;2022-11-03T13:23:48;12.32;;;4.22;;
20251;SDS011;10284;58.364;15.550;2022-11-03T13:26:13;13.45;;;4.65;;
20251;SDS011;10284;58.364;15.550;2022-11-03T13:28:39;11.40;;;3.80;;
20251;SDS011;10284;58.364;15.550;2022-11-03T13:31:04;10.55;;;3.95;;
20251;SDS011;10284;58.364;15.550;2022-11-03T13:33:30;15.20;;;4.10;;
20251;SDS011;10284;58.364;15.550;2022-11-03T13:35:55;9.15;;;3.53;;
20251;SDS011;10284;58.364;15.550;2022-11-03T13:38:21;10.13;;;3.53;;
20251;SDS011;10284;58.364;15.550;2022-11-03T13:40:46;10.95;;;3.85;;
20251;SDS011;10284;58.364;15.550;2022-11-03T13:43:11;13.80;;;4.18;;
20251;SDS011;10284;58.364;15.550;2022-11-03T13:45:37;13.15;;;4.57;;
20251;SDS011;10284;58.364;15.550;2022-11-03T13:48:03;11.63;;;4.15;;
20251;SDS011;10284;58.364;15.550;2022-11-03T13:50:28;14.77;;;3.95;;
20251;SDS011;10284;58.364;15.550;2022-11-03T13:52:53;13.20;;;4.45;;
20251;SDS011;10284;58.364;15.550;2022-11-03T13:55:19;10.90;;;3.78;;
20251;SDS011;10284;58.364;15.550;2022-11-03T13:57:46;9.85;;;3.90;;
20251;SDS011;10284;58.364;15.550;2022-11-03T14:00:12;12.07;;;3.75;;
20251;SDS011;10284;58.364;15.550;2022-11-03T14:02:38;15.02;;;4.45;;
20251;SDS011;10284;58.364;15.550;2022-11-03T14:05:04;11.18;;;3.40;;
20251;SDS011;10284;58.364;15.550;2022-11-03T14:07:30;8.77;;;3.28;;
20251;SDS011;10284;58.364;15.550;2022-11-03T14:09:55;15.13;;;3.53;;
20251;SDS011;10284;58.364;15.550;2022-11-03T14:12:20;12.90;;;3.85;;
20251;SDS011;10284;58.364;15.550;2022-11-03T14:14:55;10.02;;;3.50;;
20251;SDS011;10284;58.364;15.550;2022-11-03T14:17:24;13.20;;;3.90;;
20251;SDS011;10284;58.364;15.550;2022-11-03T14:19:50;11.80;;;3.95;;
20251;SDS011;10284;58.364;15.550;2022-11-03T14:22:16;14.90;;;4.28;;
20251;SDS011;10284;58.364;15.550;2022-11-03T14:24:41;8.63;;;3.90;;
20251;SDS011;10284;58.364;15.550;2022-11-03T14:27:07;12.40;;;3.60;;
20251;SDS011;10284;58.364;15.550;2022-11-03T14:29:32;9.07;;;3.22;;
20251;SDS011;10284;58.364;15.550;2022-11-03T14:31:58;9.25;;;3.40;;
20251;SDS011;10284;58.364;15.550;2022-11-03T14:34:24;13.15;;;3.45;;
20251;SDS011;10284;58.364;15.550;2022-11-03T14:36:49;14.07;;;3.40;;
20251;SDS011;10284;58.364;15.550;2022-11-03T14:39:14;13.32;;;3.15;;
20251;SDS011;10284;58.364;15.550;2022-11-03T14:41:40;10.75;;;3.15;;
20251;SDS011;10284;58.364;15.550;2022-11-03T14:44:23;10.20;;;3.17;;
20251;SDS011;10284;58.364;15.550;2022-11-03T14:46:49;11.52;;;3.30;;
20251;SDS011;10284;58.364;15.550;2022-11-03T14:49:14;12.45;;;3.42;;
20251;SDS011;10284;58.364;15.550;2022-11-03T14:51:40;10.10;;;3.45;;
20251;SDS011;10284;58.364;15.550;2022-11-03T14:54:07;8.80;;;3.30;;
20251;SDS011;10284;58.364;15.550;2022-11-03T14:56:32;10.25;;;3.60;;
20251;SDS011;10284;58.364;15.550;2022-11-03T14:58:57;9.07;;;3.20;;
20251;SDS011;10284;58.364;15.550;2022-11-03T15:01:23;9.77;;;3.72;;
20251;SDS011;10284;58.364;15.550;2022-11-03T15:03:48;10.05;;;4.00;;
20251;SDS011;10284;58.364;15.550;2022-11-03T15:06:14;10.02;;;3.90;;
20251;SDS011;10284;58.364;15.550;2022-11-03T15:08:39;10.50;;;3.15;;
20251;SDS011;10284;58.364;15.550;2022-11-03T15:11:05;8.52;;;4.10;;
20251;SDS011;10284;58.364;15.550;2022-11-03T15:13:34;11.27;;;3.60;;
20251;SDS011;10284;58.364;15.550;2022-11-03T15:16:00;14.98;;;4.57;;
20251;SDS011;10284;58.364;15.550;2022-11-03T15:18:26;10.77;;;3.20;;
20251;SDS011;10284;58.364;15.550;2022-11-03T15:20:51;8.63;;;3.53;;
20251;SDS011;10284;58.364;15.550;2022-11-03T15:23:18;12.90;;;3.80;;
20251;SDS011;10284;58.364;15.550;2022-11-03T15:25:43;8.52;;;3.72;;
20251;SDS011;10284;58.364;15.550;2022-11-03T15:28:09;9.70;;;3.83;;
20251;SDS011;10284;58.364;15.550;2022-11-03T15:30:35;11.90;;;3.78;;
20251;SDS011;10284;58.364;15.550;2022-11-03T15:33:01;15.32;;;4.00;;
20251;SDS011;10284;58.364;15.550;2022-11-03T15:35:26;11.07;;;3.20;;
20251;SDS011;10284;58.364;15.550;2022-11-03T15:37:52;15.60;;;4.65;;